Time;durP1;ratioP1;P1;durP2;ratioP2;P2;SDS_P1;SDS_P2;PMS_P1;PMS_P2;Temp;Humidity;BMP_temperature;BMP_pressure;BME280_temperature;BME280_humidity;BME280_pressure;Samples;Min_cycle;Max_cycle;Signal;HPM_P1;HPM_P2
2021/12/23 00:04:16;;;;;;;15.23;8.47;;;;;;;-3.66;100.00;96932.63;10471832;28;20274;-76
2021/12/23 00:09:16;;;;;;;19.77;10.17;;;;;;;-3.66;100.00;96920.69;10454997;28;20188;-75
2021/12/23 00:14:17;;;;;;;17.23;9.63;;;;;;;-3.63;100.00;96925.69;10454792;28;20206;-76
2021/12/23 00:24:26;;;;;;;16.43;7.30;;;;;;;-3.60;100.00;96897.38;10448892;28;20231;-75
2021/12/23 00:29:26;;;;;;;15.23;8.40;;;;;;;-3.58;100.00;96887.09;10467914;28;20224;-75
2021/12/23 00:34:26;;;;;;;17.80;8.40;;;;;;;-3.67;100.00;96890.03;10465037;28;20195;-75
2021/12/23 00:39:28;;;;;;;20.33;8.20;;;;;;;-3.68;100.00;96878.94;10493607;28;20197;-75
2021/12/23 00:44:28;;;;;;;12.53;6.60;;;;;;;-3.68;100.00;96876.38;10494706;28;20726;-75
2021/12/23 00:49:29;;;;;;;16.83;10.37;;;;;;;-3.79;100.00;96889.63;10458650;28;20211;-73
2021/12/23 00:54:29;;;;;;;16.43;8.00;;;;;;;-3.77;100.00;96879.34;10483858;28;20194;-73
2021/12/23 00:59:30;;;;;;;12.23;6.53;;;;;;;-3.69;100.00;96867.06;10474340;28;20747;-73
2021/12/23 01:04:30;;;;;;;15.47;7.70;;;;;;;-3.77;100.00;96866.53;10471340;28;20283;-73
2021/12/23 01:09:30;;;;;;;10.23;6.33;;;;;;;-3.66;100.00;96861.81;10453869;28;20227;-76
2021/12/23 01:14:41;;;;;;;8.60;4.83;;;;;;;-3.60;99.89;96861.56;10434982;28;20220;-73
2021/12/23 01:19:49;;;;;;;9.67;5.00;;;;;;;-3.65;99.83;96863.44;10436402;28;20691;-73
2021/12/23 01:24:50;;;;;;;12.97;6.50;;;;;;;-3.69;100.00;96864.50;10467655;28;20222;-73
2021/12/23 01:29:50;;;;;;;15.30;8.37;;;;;;;-3.73;100.00;96855.28;10489079;28;20222;-73
2021/12/23 01:34:50;;;;;;;14.73;6.43;;;;;;;-3.71;100.00;96843.22;10457468;28;20218;-73
2021/12/23 01:39:51;;;;;;;15.10;6.47;;;;;;;-3.75;100.00;96836.59;10453242;28;20267;-73
2021/12/23 01:44:51;;;;;;;9.57;5.50;;;;;;;-3.77;100.00;96830.69;10477813;28;20652;-76
2021/12/23 01:49:51;;;;;;;13.97;8.80;;;;;;;-3.83;100.00;96825.84;10451551;28;20687;-73
2021/12/23 01:54:52;;;;;;;15.87;8.17;;;;;;;-3.76;100.00;96814.47;10434438;28;20610;-73
2021/12/23 01:59:52;;;;;;;14.87;8.33;;;;;;;-3.75;100.00;96813.56;10487923;28;20233;-75
2021/12/23 02:04:54;;;;;;;10.73;6.00;;;;;;;-3.77;100.00;96808.50;10445868;28;20714;-76
2021/12/23 02:09:57;;;;;;;16.93;9.67;;;;;;;-3.85;100.00;96794.38;10492486;28;20269;-76
2021/12/23 02:14:58;;;;;;;15.67;8.00;;;;;;;-3.86;100.00;96790.16;10487341;28;20198;-73
2021/12/23 02:19:58;;;;;;;9.13;5.40;;;;;;;-3.82;100.00;96781.44;10451233;28;20590;-73
2021/12/23 02:24:58;;;;;;;15.43;7.50;;;;;;;-3.81;100.00;96773.69;10451232;28;20571;-73
2021/12/23 02:29:59;;;;;;;12.83;7.13;;;;;;;-3.78;99.72;96758.22;10476706;28;20211;-73
2021/12/23 02:34:59;;;;;;;15.47;8.77;;;;;;;-3.74;98.98;96743.53;10432744;28;20184;-73
2021/12/23 02:40:01;;;;;;;17.53;10.17;;;;;;;-3.80;99.52;96731.00;10450637;28;20191;-73
2021/12/23 02:45:04;;;;;;;16.00;8.47;;;;;;;-3.74;98.94;96724.81;10450377;28;20191;-73
2021/12/23 02:50:05;;;;;;;15.10;6.97;;;;;;;-3.66;98.04;96722.72;10457490;28;20208;-73
2021/12/23 02:55:06;;;;;;;11.93;6.47;;;;;;;-3.72;99.46;96734.09;10440142;28;20188;-76
2021/12/23 03:00:07;;;;;;;13.60;7.73;;;;;;;-3.69;98.50;96731.38;10457962;28;20179;-75
2021/12/23 03:05:08;;;;;;;15.33;6.20;;;;;;;-3.65;98.19;96714.16;10455995;28;20191;-76
2021/12/23 03:10:09;;;;;;;15.93;8.47;;;;;;;-3.70;98.33;96696.44;10457609;28;20218;-75
2021/12/23 03:15:10;;;;;;;11.57;6.83;;;;;;;-3.70;98.41;96686.19;10456582;28;20648;-75
2021/12/23 03:20:10;;;;;;;15.27;7.33;;;;;;;-3.68;98.01;96686.13;10457081;28;20192;-75
2021/12/23 03:25:11;;;;;;;13.80;5.90;;;;;;;-3.67;97.77;96683.50;10457069;28;20232;-75
2021/12/23 03:30:11;;;;;;;17.23;7.93;;;;;;;-3.68;97.87;96669.03;10492699;28;20222;-75
2021/12/23 03:35:12;;;;;;;13.60;7.03;;;;;;;-3.62;97.59;96650.81;10461086;28;20557;-75
2021/12/23 03:40:12;;;;;;;12.43;6.60;;;;;;;-3.57;96.89;96640.38;10488623;28;20252;-76
2021/12/23 03:45:13;;;;;;;12.47;6.03;;;;;;;-3.58;96.46;96631.06;10450762;28;20184;-75
2021/12/23 03:50:16;;;;;;;14.03;8.03;;;;;;;-3.53;96.31;96618.03;10455688;28;20722;-75
2021/12/23 03:55:17;;;;;;;9.70;5.00;;;;;;;-3.49;96.19;96611.84;10460891;28;20198;-76
2021/12/23 04:00:19;;;;;;;17.10;8.20;;;;;;;-3.46;95.40;96591.22;10466522;28;20191;-75
2021/12/23 04:05:20;;;;;;;20.33;8.13;;;;;;;-3.41;95.39;96584.16;10475052;28;20199;-76
2021/12/23 04:10:21;;;;;;;14.77;6.73;;;;;;;-3.41;94.83;96591.84;10475904;28;20776;-75
2021/12/23 04:15:22;;;;;;;15.43;8.03;;;;;;;-3.41;94.52;96572.16;10470045;28;20187;-75
2021/12/23 04:20:29;;;;;;;19.57;8.23;;;;;;;-3.36;94.68;96561.72;10450775;28;20183;-76
2021/12/23 04:25:30;;;;;;;16.93;7.20;;;;;;;-3.36;94.79;96550.66;10471686;28;20235;-74
2021/12/23 04:30:30;;;;;;;16.57;7.17;;;;;;;-3.37;94.58;96547.22;10452775;28;20691;-74
2021/12/23 04:35:31;;;;;;;16.90;8.10;;;;;;;-3.32;93.71;96522.25;10469808;28;20198;-75
2021/12/23 04:40:34;;;;;;;9.47;5.73;;;;;;;-3.25;93.04;96508.22;10488125;28;20193;-76
2021/12/23 04:45:35;;;;;;;12.17;6.97;;;;;;;-3.25;92.42;96515.91;10433841;28;20187;-73
2021/12/23 04:50:35;;;;;;;18.27;9.37;;;;;;;-3.35;92.96;96496.78;10469143;28;20230;-74
2021/12/23 04:55:35;;;;;;;13.27;7.43;;;;;;;-3.34;93.32;96512.97;10490003;28;20249;-74
2021/12/23 05:00:36;;;;;;;21.63;9.90;;;;;;;-3.41;93.43;96491.97;10477541;28;20677;-74
2021/12/23 05:05:36;;;;;;;20.57;10.37;;;;;;;-3.33;92.15;96468.53;10476063;28;20647;-74
2021/12/23 05:10:37;;;;;;;15.37;7.93;;;;;;;-3.30;91.93;96464.06;10449398;28;20573;-74
2021/12/23 05:15:37;;;;;;;16.33;6.50;;;;;;;-3.31;92.69;96462.41;10438460;28;20203;-74
2021/12/23 05:20:38;;;;;;;16.57;8.23;;;;;;;-3.28;91.83;96435.81;10493541;28;20635;-74
2021/12/23 05:25:38;;;;;;;19.00;8.77;;;;;;;-3.24;91.01;96440.72;10493603;28;20245;-74
2021/12/23 05:30:39;;;;;;;18.03;8.90;;;;;;;-3.22;90.28;96415.00;10455492;28;20596;-74
2021/12/23 05:35:40;;;;;;;19.50;9.93;;;;;;;-3.28;90.36;96417.88;10452631;28;20195;-74
2021/12/23 05:40:40;;;;;;;15.73;7.93;;;;;;;-3.21;89.92;96395.38;10452406;28;20187;-74
2021/12/23 05:45:41;;;;;;;26.23;12.57;;;;;;;-3.23;89.26;96386.03;10452002;28;20187;-74
2021/12/23 05:50:41;;;;;;;26.20;10.63;;;;;;;-3.24;88.99;96371.53;10445991;28;20588;-75
2021/12/23 05:55:41;;;;;;;20.43;9.77;;;;;;;-3.18;88.98;96356.78;10492977;28;20222;-74
2021/12/23 06:00:42;;;;;;;12.97;6.60;;;;;;;-3.20;88.46;96345.78;10493417;28;20183;-74
2021/12/23 06:05:42;;;;;;;23.30;10.70;;;;;;;-3.27;88.36;96338.41;10467196;28;20278;-74
2021/12/23 06:10:43;;;;;;;20.43;11.03;;;;;;;-3.17;87.09;96325.13;10461497;28;20264;-74
2021/12/23 06:15:43;;;;;;;19.03;9.57;;;;;;;-3.14;87.25;96328.34;10431078;28;20205;-74
2021/12/23 06:20:43;;;;;;;19.83;9.50;;;;;;;-3.11;87.64;96327.34;10476576;28;20632;-74
2021/12/23 06:25:44;;;;;;;22.93;11.87;;;;;;;-3.18;87.30;96331.97;10499982;28;20592;-74
2021/12/23 06:30:45;;;;;;;22.20;10.87;;;;;;;-3.14;87.68;96342.88;10486315;28;20212;-74
2021/12/23 06:35:45;;;;;;;17.73;8.33;;;;;;;-3.12;87.00;96331.66;10460065;28;20248;-74
2021/12/23 06:40:45;;;;;;;18.27;9.80;;;;;;;-3.09;87.08;96336.63;10491912;28;20198;-74
2021/12/23 06:45:46;;;;;;;23.13;9.73;;;;;;;-3.07;87.21;96337.34;10483584;28;20564;-75
2021/12/23 06:50:46;;;;;;;20.57;9.40;;;;;;;-3.02;86.32;96326.84;10477120;28;20306;-75
2021/12/23 06:55:47;;;;;;;21.27;9.10;;;;;;;-3.05;86.02;96301.41;10499363;28;20245;-75
2021/12/23 07:00:47;;;;;;;21.67;9.87;;;;;;;-3.02;84.78;96290.97;10481648;28;20584;-75
2021/12/23 07:05:55;;;;;;;15.43;7.43;;;;;;;-3.07;84.66;96303.22;10498207;28;20286;-75
2021/12/23 07:10:56;;;;;;;30.30;13.00;;;;;;;-3.15;85.27;96313.06;10460839;28;20306;-75
2021/12/23 07:16:00;;;;;;;23.60;8.50;;;;;;;-3.08;85.19;96299.84;10459271;28;20598;-75
2021/12/23 07:21:00;;;;;;;21.33;10.80;;;;;;;-3.06;84.71;96287.75;10486904;28;20628;-75
2021/12/23 07:26:01;;;;;;;15.80;7.90;;;;;;;-3.00;84.48;96286.63;10494286;28;20329;-75
2021/12/23 07:31:01;;;;;;;22.10;9.60;;;;;;;-2.94;83.01;96270.06;10456028;28;20251;-75
2021/12/23 07:36:05;;;;;;;12.60;6.53;;;;;;;-2.93;83.00;96285.34;10456561;28;20194;-75
2021/12/23 07:41:05;;;;;;;17.20;7.77;;;;;;;-2.87;82.93;96264.50;10484432;28;20230;-75
2021/12/23 07:46:06;;;;;;;15.97;7.70;;;;;;;-2.79;82.34;96271.78;10497572;28;20195;-75
2021/12/23 07:51:08;;;;;;;16.80;7.73;;;;;;;-2.67;81.32;96252.31;10497361;28;20261;-75
2021/12/23 07:56:08;;;;;;;13.87;7.30;;;;;;;-2.57;80.83;96240.63;10467941;28;20191;-75
2021/12/23 08:01:08;;;;;;;13.70;6.97;;;;;;;-2.52;81.06;96237.81;10441276;28;20180;-75
2021/12/23 08:06:09;;;;;;;20.13;9.70;;;;;;;-2.51;80.15;96224.91;10467741;28;20188;-75
2021/12/23 08:11:09;;;;;;;17.20;8.23;;;;;;;-2.44;79.73;96227.94;10450730;28;20211;-74
2021/12/23 08:16:10;;;;;;;13.00;6.83;;;;;;;-2.39;79.01;96195.16;10456373;28;20237;-75
2021/12/23 08:21:10;;;;;;;16.83;7.87;;;;;;;-2.36;79.19;96186.44;10462030;28;20635;-74
2021/12/23 08:26:15;;;;;;;14.73;6.20;;;;;;;-2.27;78.01;96164.56;10418340;28;20221;-74
2021/12/23 08:31:16;;;;;;;11.13;6.17;;;;;;;-2.23;77.60;96158.34;10432617;28;20762;-75
2021/12/23 08:36:20;;;;;;;16.20;8.10;;;;;;;-2.27;78.10;96183.34;10437135;28;20251;-76
2021/12/23 08:41:20;;;;;;;13.57;7.40;;;;;;;-2.30;78.48;96178.38;10411122;28;20219;-76
2021/12/23 08:46:21;;;;;;;19.70;10.17;;;;;;;-2.25;79.21;96180.69;10412090;28;20215;-76
2021/12/23 08:51:22;;;;;;;14.60;8.20;;;;;;;-2.23;78.02;96160.91;10410940;28;20955;-75
2021/12/23 08:56:22;;;;;;;14.07;6.93;;;;;;;-2.21;78.11;96165.00;10410594;28;20660;-76
2021/12/23 09:01:23;;;;;;;16.03;8.50;;;;;;;-2.28;78.83;96165.47;10410920;28;20276;-75
2021/12/23 09:06:23;;;;;;;15.73;7.07;;;;;;;-2.19;78.24;96141.81;10438800;28;20211;-76
2021/12/23 09:11:24;;;;;;;16.50;8.17;;;;;;;-2.08;77.79;96116.34;10451298;28;20219;-76
2021/12/23 09:16:25;;;;;;;30.63;14.97;;;;;;;-2.03;78.69;96127.16;10430354;28;20203;-76
2021/12/23 09:21:25;;;;;;;25.37;12.53;;;;;;;-2.03;78.92;96128.91;10449919;28;20188;-76
2021/12/23 09:26:27;;;;;;;13.20;5.93;;;;;;;-1.89;77.51;96146.03;10429999;28;20330;-76
2021/12/23 09:36:46;;;;;;;18.80;6.40;;;;;;;-1.77;77.71;96131.63;10450539;28;20188;-73
2021/12/23 09:41:47;;;;;;;17.37;7.60;;;;;;;-1.74;77.90;96119.41;10450678;28;20642;-73
2021/12/23 09:52:06;;;;;;;14.97;8.23;;;;;;;-1.66;78.57;96113.78;8585145;26;20606;-63
2021/12/23 09:57:07;;;;;;;16.07;8.37;;;;;;;-1.59;78.01;96088.53;10395815;28;20254;-63
2021/12/23 10:02:07;;;;;;;20.93;8.57;;;;;;;-1.63;77.66;96086.16;10417032;28;20205;-62
2021/12/23 10:07:08;;;;;;;15.67;8.37;;;;;;;-1.64;77.98;96093.97;10403923;28;20250;-61
2021/12/23 10:33:49;;;;;;;19.43;8.83;;;;;;;-1.29;75.42;96040.34;10415643;28;20220;-63
2021/12/23 10:38:51;;;;;;;22.67;9.70;;;;;;;-1.30;75.82;96027.63;10399714;28;20189;-63
2021/12/23 10:43:55;;;;;;;11.83;6.60;;;;;;;-1.28;75.79;96028.31;10416151;28;20244;-63
2021/12/23 10:54:23;;;;;;;20.13;10.67;;;;;;;-0.94;73.88;95957.50;10357402;28;20233;-62
2021/12/23 10:59:30;;;;;;;22.10;9.30;;;;;;;-0.64;71.79;95911.78;10376757;28;20188;-61
2021/12/23 11:04:36;;;;;;;19.13;8.43;;;;;;;-0.45;69.82;95870.13;10406692;28;20219;-62
2021/12/23 11:10:02;;;;;;;16.43;6.90;;;;;;;-0.64;70.64;95884.31;10373058;28;20208;-62
2021/12/23 11:46:45;;;;;;;24.23;12.83;;;;;;;-0.53;70.64;95813.28;10376307;28;20213;-64
2021/12/23 11:51:53;;;;;;;19.37;8.73;;;;;;;-0.46;69.99;95778.44;10372660;28;20239;-64
2021/12/23 11:57:06;;;;;;;20.53;9.33;;;;;;;-0.49;70.56;95794.94;10372400;28;20193;-62
2021/12/23 12:02:20;;;;;;;26.83;11.73;;;;;;;-0.53;71.66;95834.69;10371943;28;20228;-63
2021/12/23 12:07:22;;;;;;;32.57;13.90;;;;;;;-0.59;73.04;95840.25;10403138;28;20200;-63
2021/12/23 12:12:23;;;;;;;25.57;11.50;;;;;;;-0.56;70.95;95786.81;10412370;28;20229;-59
2021/12/23 12:17:23;;;;;;;23.20;9.13;;;;;;;-0.51;71.40;95798.53;10412717;28;20279;-63
2021/12/23 12:22:53;;;;;;;34.80;18.10;;;;;;;-0.70;74.93;95842.75;10411858;28;20270;-63
2021/12/23 12:27:57;;;;;;;31.20;12.23;;;;;;;-1.09;75.89;95859.13;10412177;28;20439;-61
2021/12/23 12:32:57;;;;;;;40.63;17.77;;;;;;;-1.27;77.03;95878.38;10410914;28;20354;-63
2021/12/23 12:38:12;;;;;;;37.03;17.67;;;;;;;-1.29;78.55;95901.63;10410832;28;20266;-62
2021/12/23 12:43:56;;;;;;;29.17;12.10;;;;;;;-1.38;78.99;95875.69;10411603;28;20278;-63
2021/12/23 12:48:57;;;;;;;43.57;19.57;;;;;;;-1.58;80.24;95898.41;10411552;28;20654;-61
2021/12/23 12:54:04;;;;;;;30.97;14.77;;;;;;;-1.60;81.46;95902.00;10410349;28;20330;-62
2021/12/23 12:59:08;;;;;;;35.53;17.10;;;;;;;-1.71;82.46;95906.09;10411300;28;20279;-60
2021/12/23 13:04:34;;;;;;;41.17;19.37;;;;;;;-1.62;83.07;95889.28;10410481;28;20221;-61
2021/12/23 13:09:49;;;;;;;39.80;15.33;;;;;;;-1.58;82.79;95865.00;10424988;28;20204;-61
2021/12/23 13:15:21;;;;;;;33.33;16.67;;;;;;;-1.51;83.61;95857.75;10410087;28;20225;-60
2021/12/23 13:21:05;;;;;;;41.27;19.43;;;;;;;-1.32;82.94;95801.63;10409274;28;20246;-59
2021/12/23 13:26:14;;;;;;;33.33;13.23;;;;;;;-1.25;83.38;95796.88;10409644;28;20212;-61
2021/12/23 13:31:16;;;;;;;36.13;17.47;;;;;;;-1.35;84.46;95772.72;10408528;28;20224;-59
2021/12/23 13:36:19;;;;;;;26.93;13.07;;;;;;;-1.27;85.02;95755.06;10409520;28;20221;-60
2021/12/23 13:41:27;;;;;;;46.10;18.47;;;;;;;-1.30;84.53;95738.09;10408392;28;20195;-59
2021/12/23 13:46:29;;;;;;;20.57;10.87;;;;;;;-1.16;83.98;95724.28;10409150;28;20350;-61
2021/12/23 13:51:32;;;;;;;30.23;13.23;;;;;;;-1.19;84.59;95711.63;10420843;28;20577;-60
2021/12/23 13:56:33;;;;;;;31.20;14.53;;;;;;;-1.23;84.88;95701.69;10449946;28;20219;-60
2021/12/23 14:01:34;;;;;;;28.40;11.70;;;;;;;-1.28;84.53;95720.81;10450731;28;20215;-62
2021/12/23 14:06:34;;;;;;;32.90;18.43;;;;;;;-1.34;85.13;95705.84;10432026;28;20747;-60
2021/12/23 14:11:35;;;;;;;31.83;14.50;;;;;;;-1.20;84.40;95716.88;10450187;28;20208;-59
2021/12/23 14:16:39;;;;;;;28.90;13.27;;;;;;;-1.15;83.20;95695.09;10448645;28;20223;-61
2021/12/23 14:26:58;;;;;;;17.73;8.40;;;;;;;-1.17;82.71;95685.84;10434787;28;20665;-61
2021/12/23 14:31:58;;;;;;;35.20;17.57;;;;;;;-1.23;82.72;95676.81;10430915;28;20220;-63
2021/12/23 14:36:59;;;;;;;31.43;16.13;;;;;;;-1.30;83.24;95696.19;10449195;28;20828;-63
2021/12/23 14:42:13;;;;;;;25.80;10.27;;;;;;;-1.25;83.26;95681.25;10452276;28;20597;-61
2021/12/23 14:47:23;;;;;;;34.77;14.23;;;;;;;-1.25;83.11;95670.97;10455957;28;20669;-60
2021/12/23 14:52:31;;;;;;;64.87;24.67;;;;;;;-1.35;83.55;95701.59;10456713;28;20235;-61
2021/12/23 14:57:36;;;;;;;40.10;16.73;;;;;;;-1.39;84.10;95714.78;10456509;28;20676;-63
2021/12/23 15:02:36;;;;;;;42.80;21.00;;;;;;;-1.35;83.31;95703.38;10473052;22;20219;-59
2021/12/23 15:08:04;;;;;;;32.63;16.30;;;;;;;-1.26;83.09;95702.72;10539207;28;20190;-60
2021/12/23 15:13:23;;;;;;;42.53;21.40;;;;;;;-1.13;82.35;95723.25;10539079;28;20268;-58
2021/12/23 15:18:37;;;;;;;45.20;22.07;;;;;;;-1.10;81.85;95725.59;10520130;28;20210;-57
2021/12/23 15:23:44;;;;;;;38.57;20.00;;;;;;;-0.96;80.70;95710.00;10533018;28;20210;-59
2021/12/23 15:29:15;;;;;;;27.00;12.00;;;;;;;-0.65;79.01;95684.63;10514916;28;20265;-60
2021/12/23 15:34:16;;;;;;;30.13;13.77;;;;;;;-0.39;78.12;95646.66;10522040;28;20696;-59
2021/12/23 15:39:29;;;;;;;24.53;11.67;;;;;;;-0.16;76.62;95633.81;10516337;28;20188;-60
2021/12/23 15:44:30;;;;;;;22.13;8.57;;;;;;;0.02;75.69;95611.00;10535992;28;20238;-60
2021/12/23 15:49:31;;;;;;;23.40;9.43;;;;;;;0.20;75.03;95595.88;10512793;28;20203;-58
2021/12/23 15:54:32;;;;;;;17.03;7.77;;;;;;;0.19;75.12;95578.78;10492638;28;20704;-61
2021/12/23 15:59:32;;;;;;;20.87;10.87;;;;;;;0.15;74.92;95572.22;10493629;28;20207;-59
2021/12/23 16:04:34;;;;;;;20.63;10.37;;;;;;;-0.19;76.34;95595.44;10493502;28;20384;-59
2021/12/23 16:09:36;;;;;;;21.97;10.50;;;;;;;-0.25;77.05;95603.63;10493172;28;20195;-57
2021/12/23 16:14:36;;;;;;;19.33;8.20;;;;;;;-0.07;76.42;95573.91;10475686;28;20572;-59
2021/12/23 16:19:37;;;;;;;17.63;9.70;;;;;;;-0.16;76.55;95581.53;10493351;28;20203;-60
2021/12/23 16:24:39;;;;;;;21.43;10.93;;;;;;;0.02;81.68;95669.41;10491857;28;20219;-60
2021/12/23 16:30:06;;;;;;;8.93;5.03;;;;;;;0.23;93.37;95710.69;10492043;28;20595;-60
2021/12/23 16:35:08;;;;;;;11.27;6.90;;;;;;;0.53;100.00;95694.63;10490957;28;20234;-59
2021/12/23 16:40:12;;;;;;;13.93;7.50;;;;;;;0.71;100.00;95672.56;10485217;28;20207;-61
2021/12/23 16:45:16;;;;;;;14.73;7.73;;;;;;;0.82;100.00;95650.28;10490698;28;20216;-60
2021/12/23 16:50:16;;;;;;;10.43;4.97;;;;;;;1.06;100.00;95621.69;10490609;28;20202;-58
2021/12/23 17:00:34;;;;;;;11.47;6.93;;;;;;;1.14;100.00;95619.31;10491075;28;20691;-59
2021/12/23 17:05:36;;;;;;;13.53;6.93;;;;;;;1.27;100.00;95629.41;10489187;28;20280;-60
2021/12/23 17:10:37;;;;;;;7.53;4.30;;;;;;;1.56;100.00;95621.03;10489522;28;20222;-61
2021/12/23 17:15:37;;;;;;;6.97;4.30;;;;;;;1.67;100.00;95607.22;10489796;28;20217;-61
2021/12/23 17:25:40;;;;;;;11.93;4.07;;;;;;;1.78;100.00;95564.09;10488638;28;20219;-60
2021/12/23 17:30:43;;;;;;;9.40;5.37;;;;;;;1.73;97.67;95482.78;10488819;28;20944;-59
2021/12/23 17:35:46;;;;;;;10.00;5.17;;;;;;;1.61;96.64;95500.19;10489204;28;20229;-59
2021/12/23 17:40:48;;;;;;;8.80;5.60;;;;;;;1.90;86.08;95455.50;10492008;28;20202;-58
2021/12/23 17:45:49;;;;;;;12.90;6.00;;;;;;;1.98;82.69;95455.66;10502344;28;20572;-59
2021/12/23 17:50:49;;;;;;;9.33;5.97;;;;;;;1.91;83.87;95476.03;10510717;28;20241;-61
2021/12/23 17:55:50;;;;;;;9.27;5.60;;;;;;;2.08;84.07;95473.75;10513903;28;20216;-58
2021/12/23 18:00:52;;;;;;;11.27;5.80;;;;;;;2.13;84.50;95448.34;10526684;28;20274;-57
2021/12/23 18:05:52;;;;;;;9.87;4.13;;;;;;;2.24;85.38;95445.63;10501613;28;20234;-59
2021/12/23 18:10:53;;;;;;;13.43;6.87;;;;;;;2.21;87.09;95450.25;10516390;28;20214;-60
2021/12/23 18:15:53;;;;;;;10.10;4.23;;;;;;;2.25;87.70;95449.00;10508311;28;20214;-59
2021/12/23 18:20:54;;;;;;;12.27;6.53;;;;;;;2.26;88.73;95458.41;10518523;28;20562;-55
2021/12/23 18:25:55;;;;;;;13.03;6.33;;;;;;;2.31;89.97;95461.38;10540287;28;20209;-58
2021/12/23 18:30:57;;;;;;;9.27;4.97;;;;;;;2.27;91.74;95444.53;10538816;28;20210;-59
2021/12/23 18:36:17;;;;;;;15.57;7.43;;;;;;;2.23;94.56;95441.38;10539312;28;20211;-57
2021/12/23 18:41:22;;;;;;;12.27;7.63;;;;;;;2.28;97.04;95443.56;10539107;28;20209;-58
2021/12/23 18:46:22;;;;;;;12.03;7.00;;;;;;;2.38;99.35;95412.56;10502327;28;20211;-58
2021/12/23 18:51:24;;;;;;;13.57;8.10;;;;;;;2.49;100.00;95413.22;10495120;28;20218;-58
2021/12/23 18:56:25;;;;;;;11.70;7.77;;;;;;;2.56;100.00;95410.06;10494556;28;20199;-57
2021/12/23 19:01:27;;;;;;;14.70;7.43;;;;;;;2.64;100.00;95400.66;10527245;28;20202;-58
2021/12/23 19:06:29;;;;;;;13.27;6.90;;;;;;;2.80;100.00;95383.75;10523687;28;20796;-60
2021/12/23 19:11:35;;;;;;;13.23;7.73;;;;;;;2.87;100.00;95381.44;10517950;28;20219;-59
2021/12/23 19:16:36;;;;;;;17.73;8.03;;;;;;;2.91;100.00;95369.81;10515901;28;20309;-60
2021/12/23 19:21:36;;;;;;;14.43;7.67;;;;;;;2.83;100.00;95368.78;10514267;28;20183;-59
2021/12/23 19:26:39;;;;;;;12.33;7.07;;;;;;;2.92;100.00;95374.84;10498028;28;20211;-60
2021/12/23 19:31:40;;;;;;;10.10;5.57;;;;;;;3.03;100.00;95358.34;10496589;28;20309;-55
2021/12/23 19:36:40;;;;;;;10.10;6.57;;;;;;;3.11;100.00;95342.94;10496653;28;20305;-60
2021/12/23 19:41:41;;;;;;;10.33;5.63;;;;;;;3.17;100.00;95326.81;10539064;28;20245;-60
2021/12/23 19:46:41;;;;;;;16.03;8.80;;;;;;;3.18;100.00;95325.84;10538429;28;20234;-58
2021/12/23 19:51:42;;;;;;;15.47;7.40;;;;;;;3.00;100.00;95325.00;10538620;28;20246;-58
2021/12/23 19:56:43;;;;;;;10.33;6.83;;;;;;;3.02;100.00;95336.03;10537859;28;20272;-58
2021/12/23 20:01:43;;;;;;;11.93;6.77;;;;;;;3.36;100.00;95325.06;10538119;28;20244;-60
2021/12/23 20:06:43;;;;;;;14.17;7.30;;;;;;;3.45;100.00;95337.13;10537477;28;20237;-59
2021/12/23 20:11:44;;;;;;;12.80;7.00;;;;;;;3.42;100.00;95352.97;10537322;28;20305;-61
2021/12/23 20:16:44;;;;;;;13.73;7.40;;;;;;;3.36;100.00;95359.53;10537240;28;20290;-57
2021/12/23 20:21:45;;;;;;;11.73;6.73;;;;;;;3.23;100.00;95356.47;10537042;28;20237;-58
2021/12/23 20:26:46;;;;;;;12.20;7.13;;;;;;;3.22;100.00;95363.41;10537046;28;20238;-59
2021/12/23 20:31:46;;;;;;;8.03;5.23;;;;;;;3.53;100.00;95360.50;10536838;28;20603;-60
2021/12/23 20:36:47;;;;;;;9.20;6.17;;;;;;;3.68;100.00;95360.81;10535963;28;20206;-58
2021/12/23 20:41:47;;;;;;;10.50;5.63;;;;;;;3.71;100.00;95362.31;10536540;28;20224;-60
2021/12/23 20:46:50;;;;;;;9.43;5.70;;;;;;;3.69;100.00;95346.09;10535957;28;20242;-59
2021/12/23 20:51:53;;;;;;;10.53;6.87;;;;;;;3.47;100.00;95340.38;10536217;28;20214;-59
2021/12/23 20:56:54;;;;;;;9.07;7.10;;;;;;;3.49;100.00;95360.94;10535891;28;20328;-55
2021/12/23 21:01:55;;;;;;;8.93;5.83;;;;;;;3.41;100.00;95342.75;10535827;28;20196;-60
2021/12/23 21:06:55;;;;;;;9.60;7.10;;;;;;;3.12;100.00;95344.53;10535557;28;20341;-61
2021/12/23 21:11:56;;;;;;;13.53;6.87;;;;;;;3.04;100.00;95336.69;10535539;28;20229;-61
2021/12/23 21:16:56;;;;;;;14.13;9.67;;;;;;;2.93;100.00;95339.47;10535441;28;20644;-62
2021/12/23 21:21:56;;;;;;;16.40;9.93;;;;;;;2.92;100.00;95330.06;10530455;28;20643;-62
2021/12/23 21:26:57;;;;;;;15.30;10.53;;;;;;;2.94;100.00;95307.47;10525177;28;20206;-62
2021/12/23 21:31:58;;;;;;;16.13;8.87;;;;;;;2.98;100.00;95288.13;10535072;28;20222;-62
2021/12/23 21:36:59;;;;;;;16.60;11.33;;;;;;;2.99;100.00;95297.50;10534395;28;20222;-60
2021/12/23 21:42:03;;;;;;;14.53;9.03;;;;;;;3.00;100.00;95293.94;10534871;28;20237;-61
2021/12/23 21:47:04;;;;;;;18.33;12.37;;;;;;;3.06;100.00;95285.59;10534249;28;20233;-60
2021/12/23 21:52:04;;;;;;;18.47;13.10;;;;;;;3.03;100.00;95278.13;10537979;28;20244;-62
2021/12/23 21:57:05;;;;;;;18.40;13.07;;;;;;;2.97;100.00;95268.38;10543124;28;20212;-63
2021/12/23 22:02:05;;;;;;;19.10;12.03;;;;;;;2.99;100.00;95264.69;10543151;28;20175;-63
2021/12/23 22:07:05;;;;;;;20.07;11.07;;;;;;;3.08;100.00;95260.41;10542344;28;20277;-62
2021/12/23 22:12:06;;;;;;;21.17;13.73;;;;;;;3.11;100.00;95267.88;10542603;28;20305;-62
2021/12/23 22:17:06;;;;;;;23.30;13.10;;;;;;;3.13;100.00;95244.47;10542300;28;20206;-62
2021/12/23 22:22:07;;;;;;;21.07;16.30;;;;;;;3.26;100.00;95234.53;10542152;28;20175;-63
2021/12/23 22:27:07;;;;;;;15.23;7.67;;;;;;;3.21;100.00;95224.63;10541797;28;20293;-62
2021/12/23 22:32:07;;;;;;;18.27;12.90;;;;;;;3.24;100.00;95208.00;10541792;28;20222;-63
2021/12/23 22:37:08;;;;;;;17.00;11.43;;;;;;;3.23;100.00;95214.13;10541013;28;20214;-62
2021/12/23 22:42:08;;;;;;;15.13;9.47;;;;;;;3.29;100.00;95226.50;10541415;28;20189;-62
2021/12/23 22:47:09;;;;;;;21.37;12.50;;;;;;;3.31;100.00;95221.19;10541036;28;20246;-62
2021/12/23 22:52:11;;;;;;;24.10;13.90;;;;;;;3.32;100.00;95207.25;10540694;28;20221;-62
2021/12/23 22:57:11;;;;;;;23.27;12.63;;;;;;;3.41;100.00;95187.44;10540787;28;20670;-62
2021/12/23 23:02:11;;;;;;;13.27;9.40;;;;;;;3.47;100.00;95185.06;10539064;28;20270;-62
2021/12/23 23:07:12;;;;;;;21.03;12.53;;;;;;;3.51;100.00;95199.34;10540024;28;20231;-62
2021/12/23 23:12:16;;;;;;;17.17;11.17;;;;;;;3.55;100.00;95195.50;10540022;28;20750;-63
2021/12/23 23:17:18;;;;;;;20.63;12.27;;;;;;;3.67;100.00;95208.19;10539562;28;20198;-62
2021/12/23 23:22:21;;;;;;;13.40;7.87;;;;;;;3.77;100.00;95195.13;10540032;28;20686;-62
2021/12/23 23:27:26;;;;;;;25.43;14.60;;;;;;;3.85;100.00;95202.97;10539803;28;20202;-62
2021/12/23 23:42:58;;;;;;;23.00;13.67;;;;;;;3.95;100.00;95182.13;10539325;28;20242;-63
2021/12/23 23:48:03;;;;;;;24.93;13.73;;;;;;;4.06;100.00;95176.69;10538998;28;20260;-63
2021/12/23 23:53:06;;;;;;;18.13;11.43;;;;;;;4.07;100.00;95155.81;10538978;28;20249;-62
2021/12/23 23:58:08;;;;;;;18.03;10.40;;;;;;;4.18;100.00;95154.72;10539076;28;20667;-62
